createdAt,value
2023-04-16T00:00:36.317Z,2.30
2023-04-16T00:03:39.816Z,2.50
2023-04-16T00:06:43.412Z,3.38
2023-04-16T00:09:46.850Z,3.53
2023-04-16T00:12:49.860Z,2.97
2023-04-16T00:15:53.284Z,3.33
2023-04-16T00:18:56.376Z,2.50
2023-04-16T00:21:59.235Z,3.10
2023-04-16T00:25:02.234Z,3.93
2023-04-16T00:28:06.219Z,3.03
2023-04-16T00:31:09.200Z,3.28
2023-04-16T00:34:12.428Z,2.20
2023-04-16T00:37:15.807Z,2.95
2023-04-16T00:40:18.602Z,3.60
2023-04-16T00:43:26.221Z,3.20
2023-04-16T00:46:29.555Z,2.97
2023-04-16T00:49:32.960Z,2.70
2023-04-16T00:52:36.133Z,2.97
2023-04-16T00:55:40.086Z,3.17
2023-04-16T00:58:43.478Z,2.80
2023-04-16T01:01:46.530Z,3.72
2023-04-16T01:04:51.862Z,3.10
2023-04-16T01:08:00.087Z,3.45
2023-04-16T01:11:03.767Z,2.70
2023-04-16T01:14:07.220Z,3.23
2023-04-16T01:17:10.327Z,3.20
2023-04-16T01:20:13.510Z,3.45
2023-04-16T01:23:18.720Z,3.28
2023-04-16T01:26:24.258Z,2.77
2023-04-16T01:29:27.584Z,2.87
2023-04-16T01:32:33.650Z,2.30
2023-04-16T01:35:36.802Z,2.78
2023-04-16T01:38:40.174Z,2.53
2023-04-16T01:41:43.809Z,2.87
2023-04-16T01:44:47.733Z,2.40
2023-04-16T01:47:51.427Z,2.40
2023-04-16T01:50:55.982Z,2.35
2023-04-16T01:53:59.756Z,2.03
2023-04-16T01:57:03.276Z,2.43
2023-04-16T02:00:08.558Z,2.37
2023-04-16T02:03:25.040Z,2.25
2023-04-16T02:06:29.146Z,2.40
2023-04-16T02:09:35.723Z,2.15
2023-04-16T02:12:41.889Z,2.30
2023-04-16T02:15:47.211Z,1.90
2023-04-16T02:18:51.614Z,1.83
2023-04-16T02:21:57.545Z,2.17
2023-04-16T02:25:00.983Z,2.83
2023-04-16T02:28:04.927Z,2.23
2023-04-16T02:31:13.864Z,2.30
2023-04-16T02:34:20.641Z,2.22
2023-04-16T02:37:26.078Z,2.05
2023-04-16T02:40:29.681Z,1.88
2023-04-16T02:43:32.993Z,2.13
2023-04-16T02:46:36.017Z,1.70
2023-04-16T02:49:39.283Z,2.08
2023-04-16T02:52:42.600Z,2.20
2023-04-16T02:55:53.014Z,2.13
2023-04-16T02:58:56.525Z,1.97
2023-04-16T03:01:59.879Z,1.70
2023-04-16T03:05:04.031Z,2.20
2023-04-16T03:08:07.899Z,2.85
2023-04-16T03:11:10.931Z,1.95
2023-04-16T03:14:14.434Z,2.43
2023-04-16T03:17:17.859Z,2.80
2023-04-16T03:20:20.977Z,3.67
2023-04-16T03:23:24.115Z,3.03
2023-04-16T03:26:27.608Z,2.25
2023-04-16T03:29:31.764Z,3.57
2023-04-16T03:32:35.162Z,3.27
2023-04-16T03:35:40.276Z,3.50
2023-04-16T03:38:44.482Z,3.47
2023-04-16T03:41:47.734Z,3.00
2023-04-16T03:44:51.533Z,3.87
2023-04-16T03:47:54.888Z,3.57
2023-04-16T03:51:01.358Z,3.65
2023-04-16T03:54:05.774Z,4.15
2023-04-16T03:57:09.522Z,3.67
2023-04-16T04:00:14.409Z,3.00
2023-04-16T04:03:18.128Z,4.40
2023-04-16T04:06:23.988Z,3.53
2023-04-16T04:09:27.196Z,3.83
2023-04-16T04:12:32.313Z,4.65
2023-04-16T04:15:35.816Z,3.27
2023-04-16T04:18:39.132Z,3.43
2023-04-16T04:21:43.064Z,3.88
2023-04-16T04:24:46.336Z,3.45
2023-04-16T04:27:50.242Z,3.83
2023-04-16T04:30:53.589Z,4.20
2023-04-16T04:33:57.010Z,3.63
2023-04-16T04:37:00.829Z,4.32
2023-04-16T04:40:05.905Z,4.15
2023-04-16T04:43:11.103Z,4.10
2023-04-16T04:46:14.695Z,4.60
2023-04-16T04:49:18.049Z,4.40
2023-04-16T04:52:21.133Z,3.90
2023-04-16T04:55:25.609Z,4.60
2023-04-16T04:58:29.529Z,4.40
2023-04-16T05:01:33.402Z,4.83
2023-04-16T05:04:36.543Z,3.73
2023-04-16T05:07:39.536Z,4.90
2023-04-16T05:10:46.358Z,5.13
2023-04-16T05:13:52.144Z,5.05
2023-04-16T05:16:55.650Z,4.63
2023-04-16T05:19:58.755Z,5.07
2023-04-16T05:23:01.873Z,4.45
2023-04-16T05:26:05.355Z,5.20
2023-04-16T05:29:09.068Z,5.00
2023-04-16T05:32:12.735Z,5.33
2023-04-16T05:35:17.544Z,4.50
2023-04-16T05:38:20.849Z,4.43
2023-04-16T05:41:23.987Z,5.28
2023-04-16T05:44:27.440Z,4.80
2023-04-16T05:47:30.602Z,4.50
2023-04-16T05:50:33.871Z,4.77
2023-04-16T05:53:37.237Z,4.25
2023-04-16T05:56:40.420Z,4.80
2023-04-16T05:59:43.502Z,4.72
2023-04-16T06:02:46.719Z,5.23
2023-04-16T06:05:50.096Z,4.60
2023-04-16T06:08:53.580Z,4.43
2023-04-16T06:11:58.194Z,4.28
2023-04-16T06:15:01.496Z,4.45
2023-04-16T06:18:06.599Z,4.77
2023-04-16T06:21:10.941Z,4.77
2023-04-16T06:24:14.188Z,4.63
2023-04-16T06:27:17.342Z,4.93
2023-04-16T06:30:21.086Z,4.85
2023-04-16T06:33:24.680Z,4.67
2023-04-16T06:36:29.087Z,3.93
2023-04-16T06:39:32.167Z,5.30
2023-04-16T06:42:35.191Z,4.10
2023-04-16T06:45:38.694Z,3.95
2023-04-16T06:48:42.675Z,4.17
2023-04-16T06:51:45.938Z,5.50
2023-04-16T06:54:49.167Z,4.55
2023-04-16T06:57:52.389Z,4.65
2023-04-16T07:00:55.963Z,6.47
2023-04-16T07:03:59.452Z,7.37
2023-04-16T07:07:03.035Z,4.53
2023-04-16T07:10:06.662Z,4.35
2023-04-16T07:13:10.194Z,4.72
2023-04-16T07:16:13.584Z,5.57
2023-04-16T07:19:16.846Z,4.83
2023-04-16T07:22:20.807Z,4.57
2023-04-16T07:25:23.654Z,6.97
2023-04-16T07:28:27.136Z,10.20
2023-04-16T07:31:31.231Z,5.90
2023-04-16T07:34:34.497Z,6.67
2023-04-16T07:37:37.973Z,4.70
2023-04-16T07:40:41.645Z,3.58
2023-04-16T07:43:44.836Z,3.45
2023-04-16T07:46:48.024Z,3.30
2023-04-16T07:49:51.034Z,4.20
2023-04-16T07:52:54.190Z,3.53
2023-04-16T07:55:57.397Z,3.58
2023-04-16T07:59:07.914Z,3.60
2023-04-16T08:02:22.512Z,3.15
2023-04-16T08:05:25.637Z,3.70
2023-04-16T08:08:29.964Z,3.20
2023-04-16T08:11:33.449Z,3.75
2023-04-16T08:14:36.909Z,3.83
2023-04-16T08:17:40.230Z,4.65
2023-04-16T08:20:43.354Z,3.60
2023-04-16T08:23:46.549Z,4.77
2023-04-16T08:26:50.017Z,9.20
2023-04-16T08:29:53.427Z,6.70
2023-04-16T08:32:56.850Z,6.53
2023-04-16T08:35:59.976Z,4.70
2023-04-16T08:39:03.121Z,4.70
2023-04-16T08:42:13.149Z,5.95
2023-04-16T08:45:19.586Z,6.60
2023-04-16T08:48:26.576Z,4.25
2023-04-16T08:51:36.064Z,3.10
2023-04-16T08:54:46.750Z,3.50
2023-04-16T08:58:00.554Z,3.17
2023-04-16T09:01:04.595Z,3.13
2023-04-16T09:04:09.389Z,3.10
2023-04-16T09:07:12.680Z,4.00
2023-04-16T09:10:16.661Z,3.43
2023-04-16T09:13:20.775Z,4.60
2023-04-16T09:16:25.230Z,3.10
2023-04-16T09:19:29.271Z,3.15
2023-04-16T09:22:35.559Z,2.90
2023-04-16T09:25:40.279Z,3.00
2023-04-16T09:28:46.989Z,2.50
2023-04-16T09:32:27.623Z,2.95
2023-04-16T09:35:45.792Z,2.65
2023-04-16T09:38:51.658Z,3.00
2023-04-16T09:41:55.478Z,3.30
2023-04-16T09:45:01.388Z,3.47
2023-04-16T09:48:07.636Z,4.15
2023-04-16T09:51:11.005Z,3.67
2023-04-16T09:54:15.701Z,3.13
2023-04-16T09:57:25.746Z,3.33
2023-04-16T10:00:30.991Z,3.22
2023-04-16T10:03:36.469Z,3.10
2023-04-16T10:06:39.691Z,3.05
2023-04-16T10:09:43.176Z,2.50
2023-04-16T10:12:46.904Z,2.93
2023-04-16T10:15:50.502Z,2.45
2023-04-16T10:18:57.144Z,2.75
2023-04-16T10:22:00.322Z,2.65
2023-04-16T10:25:04.214Z,2.70
2023-04-16T10:28:07.653Z,2.67
2023-04-16T10:31:20.553Z,2.55
2023-04-16T10:34:25.149Z,2.35
2023-04-16T10:37:32.380Z,2.35
2023-04-16T10:40:35.666Z,2.43
2023-04-16T10:44:00.104Z,2.17
2023-04-16T10:47:03.583Z,2.20
2023-04-16T10:50:16.641Z,2.85
2023-04-16T10:53:23.090Z,2.70
2023-04-16T10:56:31.490Z,2.63
2023-04-16T10:59:36.254Z,2.67
2023-04-16T11:02:41.561Z,2.45
2023-04-16T11:05:49.039Z,2.60
2023-04-16T11:08:55.298Z,2.70
2023-04-16T11:12:15.092Z,2.75
2023-04-16T11:15:21.870Z,3.70
2023-04-16T11:18:26.168Z,2.90
2023-04-16T11:21:29.787Z,3.47
2023-04-16T11:24:33.457Z,2.65
2023-04-16T11:27:36.707Z,3.58
2023-04-16T11:30:41.659Z,3.67
2023-04-16T11:33:44.981Z,3.70
2023-04-16T11:36:50.610Z,3.40
2023-04-16T11:39:54.000Z,3.80
2023-04-16T11:43:20.088Z,4.22
2023-04-16T11:46:27.663Z,3.30
2023-04-16T11:49:31.172Z,4.05
2023-04-16T11:52:36.516Z,3.80
2023-04-16T11:55:45.925Z,3.33
2023-04-16T11:59:16.011Z,3.20
2023-04-16T12:02:38.222Z,3.03
2023-04-16T12:05:41.551Z,2.95
2023-04-16T12:08:44.712Z,3.70
2023-04-16T12:11:48.028Z,3.75
2023-04-16T12:14:51.523Z,3.00
2023-04-16T12:18:08.189Z,3.00
2023-04-16T12:21:12.515Z,3.17
2023-04-16T12:24:24.234Z,2.92
2023-04-16T12:27:43.655Z,2.65
2023-04-16T12:30:51.574Z,2.75
2023-04-16T12:34:03.655Z,2.60
2023-04-16T12:37:09.696Z,2.72
2023-04-16T12:40:13.225Z,3.08
2023-04-16T12:43:16.583Z,3.40
2023-04-16T12:46:19.986Z,3.03
2023-04-16T12:49:23.423Z,3.27
2023-04-16T12:52:27.370Z,2.90
2023-04-16T12:55:31.045Z,3.03
2023-04-16T12:58:34.573Z,3.63
2023-04-16T13:01:37.861Z,3.30
2023-04-16T13:04:41.274Z,3.07
2023-04-16T13:07:44.515Z,2.55
2023-04-16T13:10:48.008Z,3.50
2023-04-16T13:13:51.351Z,3.00
2023-04-16T13:16:54.302Z,3.08
2023-04-16T13:19:57.332Z,3.40
2023-04-16T13:23:00.499Z,2.80
2023-04-16T13:26:04.174Z,2.85
2023-04-16T13:29:07.431Z,3.10
2023-04-16T13:32:12.233Z,2.55
2023-04-16T13:35:15.769Z,2.90
2023-04-16T13:38:18.848Z,3.05
2023-04-16T13:41:22.454Z,2.53
2023-04-16T13:44:28.946Z,3.17
2023-04-16T13:47:32.098Z,2.90
2023-04-16T13:50:35.851Z,3.10
2023-04-16T13:53:38.910Z,3.58
2023-04-16T13:56:42.416Z,2.92
2023-04-16T13:59:46.398Z,2.83
2023-04-16T14:02:50.279Z,3.28
2023-04-16T14:05:53.641Z,2.50
2023-04-16T14:08:56.718Z,2.88
2023-04-16T14:12:00.565Z,2.90
2023-04-16T14:15:06.737Z,3.05
2023-04-16T14:18:10.036Z,2.58
2023-04-16T14:21:13.713Z,3.30
2023-04-16T14:24:16.834Z,3.38
2023-04-16T14:27:20.042Z,3.40
2023-04-16T14:30:23.728Z,3.40
2023-04-16T14:33:27.496Z,3.47
2023-04-16T14:36:31.414Z,3.50
2023-04-16T14:39:34.508Z,3.38
2023-04-16T14:42:38.877Z,3.80
2023-04-16T14:45:42.143Z,3.50
2023-04-16T14:48:45.865Z,4.28
2023-04-16T14:51:49.152Z,4.03
2023-04-16T14:54:52.758Z,3.83
2023-04-16T14:57:56.621Z,4.63
2023-04-16T15:01:00.224Z,3.85
2023-04-16T15:04:03.609Z,5.00
2023-04-16T15:07:07.138Z,4.37
2023-04-16T15:10:11.040Z,3.90
2023-04-16T15:13:14.435Z,4.32
2023-04-16T15:16:18.070Z,4.65
2023-04-16T15:19:21.689Z,4.13
2023-04-16T15:22:24.566Z,4.57
2023-04-16T15:25:28.036Z,4.82
2023-04-16T15:28:31.476Z,5.05
2023-04-16T15:31:34.843Z,5.60
2023-04-16T15:34:37.929Z,5.68
2023-04-16T15:37:41.819Z,5.40
2023-04-16T15:40:45.309Z,5.10
2023-04-16T15:43:48.518Z,5.13
2023-04-16T15:46:51.699Z,5.78
2023-04-16T15:49:55.476Z,4.97
2023-04-16T15:52:58.705Z,5.83
2023-04-16T15:56:03.449Z,5.90
2023-04-16T15:59:09.607Z,5.55
2023-04-16T16:02:13.041Z,5.07
2023-04-16T16:05:17.120Z,5.72
2023-04-16T16:08:20.355Z,5.87
2023-04-16T16:11:24.127Z,5.47
2023-04-16T16:14:27.404Z,5.25
2023-04-16T16:17:31.158Z,5.40
2023-04-16T16:20:35.104Z,5.53
2023-04-16T16:23:39.313Z,5.20
2023-04-16T16:26:42.615Z,5.03
2023-04-16T16:29:46.318Z,4.18
2023-04-16T16:32:49.596Z,4.38
2023-04-16T16:35:54.131Z,4.75
2023-04-16T16:38:57.599Z,4.67
2023-04-16T16:42:00.973Z,4.03
2023-04-16T16:45:06.179Z,4.70
2023-04-16T16:48:09.643Z,4.38
2023-04-16T16:51:13.046Z,4.25
2023-04-16T16:57:33.384Z,4.47
2023-04-16T17:00:37.374Z,4.60
2023-04-16T17:03:41.345Z,4.00
2023-04-16T17:06:44.797Z,4.38
2023-04-16T17:09:48.146Z,4.40
2023-04-16T17:12:52.108Z,4.13
2023-04-16T17:15:55.630Z,4.15
2023-04-16T17:18:59.550Z,3.67
2023-04-16T17:22:03.208Z,4.28
2023-04-16T17:25:10.433Z,3.70
2023-04-16T17:28:14.055Z,3.53
2023-04-16T17:31:20.669Z,4.35
2023-04-16T17:34:24.112Z,4.10
2023-04-16T17:37:27.804Z,3.78
2023-04-16T17:40:31.064Z,3.63
2023-04-16T17:43:34.085Z,3.78
2023-04-16T17:46:37.373Z,3.60
2023-04-16T17:49:40.902Z,4.57
2023-04-16T17:52:45.009Z,4.15
2023-04-16T17:55:56.747Z,3.37
2023-04-16T17:59:00.838Z,4.03
2023-04-16T18:02:04.231Z,4.03
2023-04-16T18:05:08.311Z,2.70
2023-04-16T18:08:11.370Z,3.17
2023-04-16T18:11:14.346Z,3.53
2023-04-16T18:14:20.082Z,3.28
2023-04-16T18:17:23.484Z,3.25
2023-04-16T18:20:27.408Z,3.50
2023-04-16T18:23:30.558Z,3.47
2023-04-16T18:26:36.198Z,3.40
2023-04-16T18:29:40.561Z,3.47
2023-04-16T18:33:04.260Z,3.08
2023-04-16T18:36:08.698Z,2.75
2023-04-16T18:39:11.912Z,3.35
2023-04-16T18:42:15.351Z,3.30
2023-04-16T18:45:21.896Z,3.75
2023-04-16T18:48:26.841Z,3.30
2023-04-16T18:51:30.589Z,3.42
2023-04-16T18:54:34.784Z,3.75
2023-04-16T18:57:38.124Z,3.00
2023-04-16T19:00:41.261Z,3.30
2023-04-16T19:03:46.553Z,3.22
2023-04-16T19:06:49.797Z,3.20
2023-04-16T19:09:53.445Z,3.33
2023-04-16T19:12:57.441Z,2.93
2023-04-16T19:16:01.783Z,2.85
2023-04-16T19:19:05.375Z,3.05
2023-04-16T19:22:08.428Z,3.38
2023-04-16T19:25:11.527Z,2.90
2023-04-16T19:28:14.723Z,3.03
2023-04-16T19:31:18.960Z,3.13
2023-04-16T19:34:22.369Z,2.80
2023-04-16T19:37:26.005Z,2.72
2023-04-16T19:40:29.126Z,2.67
2023-04-16T19:43:32.550Z,2.90
2023-04-16T19:46:35.871Z,2.58
2023-04-16T19:49:39.628Z,3.08
2023-04-16T19:52:43.496Z,2.70
2023-04-16T19:55:46.818Z,3.40
2023-04-16T19:58:50.082Z,2.70
2023-04-16T20:01:53.814Z,2.35
2023-04-16T20:04:57.111Z,2.70
2023-04-16T20:08:00.459Z,2.80
2023-04-16T20:11:03.520Z,2.83
2023-04-16T20:14:07.054Z,3.57
2023-04-16T20:17:10.509Z,3.03
2023-04-16T20:20:15.798Z,2.72
2023-04-16T20:23:26.014Z,2.60
2023-04-16T20:26:37.901Z,2.70
2023-04-16T20:29:41.661Z,2.97
2023-04-16T20:32:45.470Z,3.15
2023-04-16T20:35:51.168Z,3.15
2023-04-16T20:38:54.875Z,3.08
2023-04-16T20:41:58.595Z,3.03
2023-04-16T20:45:04.130Z,2.53
2023-04-16T20:48:08.068Z,3.00
2023-04-16T20:51:11.479Z,2.50
2023-04-16T20:54:14.612Z,2.38
2023-04-16T20:57:18.008Z,2.90
2023-04-16T21:00:21.674Z,3.20
2023-04-16T21:03:25.374Z,3.15
2023-04-16T21:06:32.971Z,3.55
2023-04-16T21:09:36.462Z,3.17
2023-04-16T21:12:39.963Z,3.00
2023-04-16T21:15:44.519Z,3.40
2023-04-16T21:18:47.568Z,3.15
2023-04-16T21:21:51.528Z,3.15
2023-04-16T21:24:54.645Z,3.35
2023-04-16T21:27:58.080Z,3.27
2023-04-16T21:31:01.361Z,2.97
2023-04-16T21:34:04.734Z,3.15
2023-04-16T21:37:08.376Z,2.70
2023-04-16T21:40:11.739Z,3.35
2023-04-16T21:43:15.750Z,3.53
2023-04-16T21:46:19.059Z,3.23
2023-04-16T21:49:22.405Z,3.63
2023-04-16T21:52:25.639Z,3.40
2023-04-16T21:55:29.003Z,2.97
2023-04-16T21:58:32.428Z,3.10
2023-04-16T22:01:35.612Z,2.70
2023-04-16T22:04:39.152Z,3.58
2023-04-16T22:07:42.892Z,3.15
2023-04-16T22:10:45.941Z,2.65
2023-04-16T22:13:49.624Z,3.30
2023-04-16T22:16:53.714Z,3.13
2023-04-16T22:20:00.477Z,3.05
2023-04-16T22:23:03.307Z,3.70
2023-04-16T22:26:06.336Z,3.17
2023-04-16T22:29:10.351Z,3.40
2023-04-16T22:32:13.901Z,2.70
2023-04-16T22:35:16.851Z,2.78
2023-04-16T22:38:19.891Z,3.22
2023-04-16T22:41:23.467Z,3.22
2023-04-16T22:44:27.164Z,3.17
2023-04-16T22:47:30.169Z,2.93
2023-04-16T22:50:33.629Z,2.63
2023-04-16T22:53:37.245Z,3.00
2023-04-16T22:56:40.875Z,2.92
2023-04-16T22:59:44.591Z,3.07
2023-04-16T23:02:48.439Z,2.77
2023-04-16T23:05:51.973Z,2.90
2023-04-16T23:08:55.646Z,2.92
2023-04-16T23:11:58.982Z,2.97
2023-04-16T23:15:02.207Z,3.73
2023-04-16T23:18:06.090Z,2.80
2023-04-16T23:21:09.431Z,2.90
2023-04-16T23:24:12.756Z,3.10
2023-04-16T23:27:16.341Z,2.85
2023-04-16T23:30:19.514Z,2.53
2023-04-16T23:33:23.029Z,2.70
2023-04-16T23:36:27.027Z,3.40
2023-04-16T23:39:30.497Z,3.33
2023-04-16T23:42:33.632Z,4.22
2023-04-16T23:45:37.065Z,4.30
2023-04-16T23:48:40.421Z,2.87
2023-04-16T23:51:43.786Z,3.33
2023-04-16T23:54:46.877Z,2.90
2023-04-16T23:57:50.151Z,3.55
